createdAt,value
2019-03-20T00:01:47.260Z,73.02
2019-03-20T00:06:15.395Z,73.09
2019-03-20T00:08:26.204Z,73.28
2019-03-20T00:10:36.993Z,73.14
2019-03-20T00:12:47.805Z,72.95
2019-03-20T00:14:58.596Z,72.69
2019-03-20T00:17:09.420Z,72.96
2019-03-20T00:19:20.237Z,73.29
2019-03-20T00:21:31.142Z,73.16
2019-03-20T00:23:41.950Z,73.50
2019-03-20T00:25:52.746Z,74.02
2019-03-20T00:28:03.573Z,73.89
2019-03-20T00:30:56.016Z,73.84
2019-03-20T00:33:06.982Z,73.33
2019-03-20T00:35:17.771Z,72.70
2019-03-20T00:37:28.672Z,72.44
2019-03-20T00:39:39.493Z,72.70
2019-03-20T00:41:50.292Z,73.20
2019-03-20T00:44:01.127Z,73.53
2019-03-20T00:46:11.913Z,73.35
2019-03-20T00:48:22.751Z,73.19
2019-03-20T00:50:33.583Z,73.16
2019-03-20T00:52:44.383Z,73.04
2019-03-20T00:54:55.210Z,72.97
2019-03-20T00:57:06.008Z,72.98
2019-03-20T00:59:16.863Z,73.02
2019-03-20T01:01:27.790Z,73.38
2019-03-20T01:03:38.570Z,73.47
2019-03-20T01:05:49.408Z,73.68
2019-03-20T01:08:00.249Z,73.97
2019-03-20T01:10:52.739Z,73.94
2019-03-20T01:13:45.171Z,73.87
2019-03-20T01:15:55.985Z,74.10
2019-03-20T01:20:39.165Z,73.76
2019-03-20T01:22:50.104Z,73.68
2019-03-20T01:25:00.969Z,73.74
2019-03-20T01:27:11.780Z,74.20
2019-03-20T01:29:22.604Z,74.22
2019-03-20T01:31:33.425Z,74.25
2019-03-20T01:33:44.243Z,74.42
2019-03-20T01:35:55.045Z,74.77
2019-03-20T01:38:47.516Z,74.82
2019-03-20T01:40:58.322Z,74.59
2019-03-20T01:43:09.164Z,74.49
2019-03-20T01:45:19.966Z,74.65
2019-03-20T01:47:30.797Z,74.53
2019-03-20T01:49:41.598Z,74.07
2019-03-20T01:51:52.462Z,74.08
2019-03-20T01:54:03.272Z,74.11
2019-03-20T01:56:14.062Z,74.01
2019-03-20T01:58:24.909Z,73.60
2019-03-20T02:00:36.011Z,73.44
2019-03-20T02:02:46.828Z,73.23
2019-03-20T02:04:57.641Z,72.82
2019-03-20T02:07:08.447Z,73.18
2019-03-20T02:09:19.357Z,73.31
2019-03-20T02:11:30.166Z,73.22
2019-03-20T02:13:41.004Z,73.04
2019-03-20T02:15:51.798Z,72.60
2019-03-20T02:18:02.724Z,72.44
2019-03-20T02:20:55.156Z,72.62
2019-03-20T02:23:05.992Z,72.66
2019-03-20T02:25:16.800Z,73.22
2019-03-20T02:27:27.649Z,73.77
2019-03-20T02:29:38.502Z,74.61
2019-03-20T02:31:49.309Z,75.26
2019-03-20T02:34:00.155Z,75.49
2019-03-20T02:36:10.953Z,75.42
2019-03-20T02:38:21.768Z,75.56
2019-03-20T02:40:32.577Z,75.52
2019-03-20T02:42:43.387Z,75.37
2019-03-20T02:44:54.227Z,75.59
2019-03-20T02:47:05.015Z,75.79
2019-03-20T02:49:15.821Z,75.83
2019-03-20T02:51:26.653Z,75.70
2019-03-20T02:53:37.470Z,75.60
2019-03-20T02:55:48.267Z,75.48
2019-03-20T02:57:59.072Z,75.31
2019-03-20T03:00:29.796Z,75.52
2019-03-20T03:02:40.635Z,75.49
2019-03-20T03:04:51.452Z,75.56
2019-03-20T03:07:02.359Z,75.94
2019-03-20T03:09:13.192Z,75.83
2019-03-20T03:11:23.991Z,75.86
2019-03-20T03:13:34.800Z,76.05
2019-03-20T03:15:45.644Z,76.08
2019-03-20T03:17:56.450Z,75.95
2019-03-20T03:20:48.929Z,75.65
2019-03-20T03:22:59.742Z,75.42
2019-03-20T03:25:52.297Z,75.28
2019-03-20T03:28:03.164Z,75.20
2019-03-20T03:30:55.647Z,75.16
2019-03-20T03:33:06.585Z,75.27
2019-03-20T03:35:19.436Z,75.30
2019-03-20T03:37:30.062Z,75.37
2019-03-20T03:39:40.874Z,75.40
2019-03-20T03:41:51.695Z,75.31
2019-03-20T03:44:02.628Z,75.25
2019-03-20T03:46:13.478Z,75.02
2019-03-20T03:48:24.287Z,74.92
2019-03-20T03:50:35.106Z,74.70
2019-03-20T03:52:45.921Z,74.65
2019-03-20T03:55:16.587Z,75.50
2019-03-20T03:57:27.470Z,75.50
2019-03-20T03:59:38.285Z,75.25
2019-03-20T04:01:49.103Z,75.31
2019-03-20T04:03:59.891Z,75.13
2019-03-20T04:06:10.710Z,75.17
2019-03-20T04:08:21.493Z,75.39
2019-03-20T04:10:32.333Z,75.27
2019-03-20T04:12:43.148Z,75.34
2019-03-20T04:14:53.968Z,75.51
2019-03-20T04:17:46.431Z,75.58
2019-03-20T04:19:57.215Z,75.53
2019-03-20T04:22:08.016Z,75.49
2019-03-20T04:24:18.825Z,75.57
2019-03-20T04:26:49.517Z,75.36
2019-03-20T04:29:00.329Z,75.36
2019-03-20T04:31:11.136Z,75.64
2019-03-20T04:33:22.009Z,75.62
2019-03-20T04:35:32.815Z,75.67
2019-03-20T04:37:43.628Z,75.82
2019-03-20T04:39:54.457Z,75.85
2019-03-20T04:42:05.252Z,75.90
2019-03-20T04:44:16.084Z,76.25
2019-03-20T04:46:26.901Z,76.29
2019-03-20T04:48:37.785Z,76.23
2019-03-20T04:50:48.561Z,75.97
2019-03-20T04:52:59.479Z,75.84
2019-03-20T04:55:51.915Z,75.62
2019-03-20T04:58:02.848Z,75.59
2019-03-20T05:00:33.503Z,75.87
2019-03-20T05:02:44.318Z,76.07
2019-03-20T05:04:55.142Z,76.73
2019-03-20T05:07:05.925Z,76.96
2019-03-20T05:09:16.769Z,76.85
2019-03-20T05:11:27.556Z,77.08
2019-03-20T05:13:38.384Z,77.16
2019-03-20T05:15:49.331Z,77.23
2019-03-20T05:18:00.161Z,77.07
2019-03-20T05:20:30.816Z,76.79
2019-03-20T05:22:41.629Z,76.57
2019-03-20T05:24:52.463Z,76.43
2019-03-20T05:27:03.267Z,76.53
2019-03-20T05:29:14.099Z,76.76
2019-03-20T05:31:24.915Z,77.01
2019-03-20T05:33:35.732Z,77.28
2019-03-20T05:35:46.554Z,76.98
2019-03-20T05:38:17.225Z,76.85
2019-03-20T05:40:28.054Z,76.85
2019-03-20T05:42:38.871Z,76.64
2019-03-20T05:44:49.663Z,76.60
2019-03-20T05:47:00.485Z,76.44
2019-03-20T05:49:11.283Z,76.29
2019-03-20T05:51:22.107Z,76.18
2019-03-20T05:53:32.940Z,75.86
2019-03-20T05:55:43.823Z,75.29
2019-03-20T05:57:54.722Z,74.56
2019-03-20T06:02:44.288Z,72.25
2019-03-20T06:04:55.105Z,70.78
2019-03-20T06:07:05.891Z,69.50
2019-03-20T06:09:16.708Z,68.59
2019-03-20T06:11:27.546Z,68.42
2019-03-20T06:13:38.357Z,68.29
2019-03-20T06:15:49.161Z,69.23
2019-03-20T06:17:59.993Z,69.69
2019-03-20T06:20:52.466Z,70.04
2019-03-20T06:23:03.265Z,70.42
2019-03-20T06:25:55.734Z,70.91
2019-03-20T06:28:06.554Z,71.03
2019-03-20T06:30:59.015Z,70.36
2019-03-20T06:33:09.852Z,70.49
2019-03-20T06:35:20.666Z,70.67
2019-03-20T06:37:32.788Z,70.62
2019-03-20T06:39:44.222Z,70.71
2019-03-20T06:41:55.029Z,70.83
2019-03-20T06:44:05.838Z,70.69
2019-03-20T06:46:16.698Z,70.70
2019-03-20T06:48:27.511Z,70.76
2019-03-20T06:50:38.303Z,70.45
2019-03-20T06:52:49.169Z,69.33
2019-03-20T06:55:01.159Z,65.86
2019-03-20T06:57:12.695Z,61.16
2019-03-20T07:00:05.531Z,58.64
2019-03-20T07:05:34.805Z,53.17
2019-03-20T07:07:45.837Z,51.59
2019-03-20T07:10:38.272Z,48.98
2019-03-20T07:12:49.114Z,48.33
2019-03-20T07:14:59.920Z,47.56
2019-03-20T07:17:10.839Z,47.11
2019-03-20T07:19:21.661Z,45.30
2019-03-20T07:21:32.471Z,44.92
2019-03-20T07:23:43.302Z,43.89
2019-03-20T07:25:54.121Z,43.46
2019-03-20T07:28:04.917Z,43.04
2019-03-20T07:30:15.751Z,41.99
2019-03-20T07:32:26.567Z,42.17
2019-03-20T07:34:37.425Z,41.57
2019-03-20T07:36:48.246Z,41.47
2019-03-20T07:38:59.078Z,41.41
2019-03-20T07:41:09.875Z,41.79
2019-03-20T07:43:20.673Z,40.30
2019-03-20T07:45:31.498Z,40.63
2019-03-20T07:47:42.300Z,39.97
2019-03-20T07:49:53.108Z,40.57
2019-03-20T07:52:04.061Z,41.17
2019-03-20T07:54:14.843Z,40.03
2019-03-20T07:56:25.659Z,40.59
2019-03-20T07:58:36.480Z,39.46
2019-03-20T08:00:47.305Z,40.44
2019-03-20T08:02:58.123Z,41.55
2019-03-20T08:05:50.603Z,39.58
2019-03-20T08:08:07.229Z,37.94
2019-03-20T08:10:55.764Z,39.04
2019-03-20T08:13:06.577Z,38.35
2019-03-20T08:15:17.391Z,39.72
2019-03-20T08:17:28.206Z,39.48
2019-03-20T08:19:39.054Z,39.68
2019-03-20T08:21:49.986Z,39.87
2019-03-20T08:24:00.896Z,38.00
2019-03-20T08:26:11.752Z,37.60
2019-03-20T08:28:22.558Z,38.83
2019-03-20T08:30:33.378Z,38.15
2019-03-20T08:32:44.300Z,36.58
2019-03-20T08:34:55.210Z,37.08
2019-03-20T08:37:06.062Z,35.76
2019-03-20T08:39:16.940Z,36.76
2019-03-20T08:41:27.756Z,36.10
2019-03-20T08:43:38.559Z,35.60
2019-03-20T08:45:49.364Z,35.76
2019-03-20T08:48:00.206Z,34.56
2019-03-20T08:50:52.650Z,34.73
2019-03-20T08:53:03.560Z,35.68
2019-03-20T08:55:56.002Z,36.35
2019-03-20T08:58:06.835Z,36.24
2019-03-20T09:00:59.299Z,35.18
2019-03-20T09:03:10.140Z,36.14
2019-03-20T09:05:21.042Z,37.09
2019-03-20T09:07:31.830Z,35.48
2019-03-20T09:09:42.649Z,35.84
2019-03-20T09:11:53.453Z,34.93
2019-03-20T09:14:04.283Z,35.10
2019-03-20T09:16:15.094Z,35.43
2019-03-20T09:18:25.927Z,34.78
2019-03-20T09:20:36.733Z,35.44
2019-03-20T09:22:47.556Z,35.73
2019-03-20T09:24:58.365Z,37.09
2019-03-20T09:27:09.172Z,35.97
2019-03-20T09:29:19.999Z,35.26
2019-03-20T09:31:30.830Z,35.08
2019-03-20T09:33:41.750Z,35.16
2019-03-20T09:35:52.622Z,35.30
2019-03-20T09:38:03.434Z,34.36
2019-03-20T09:40:34.116Z,34.53
2019-03-20T09:42:44.920Z,32.27
2019-03-20T09:45:16.233Z,31.13
2019-03-20T09:47:27.034Z,30.74
2019-03-20T09:49:37.867Z,30.93
2019-03-20T09:51:48.654Z,30.60
2019-03-20T09:53:59.492Z,31.47
2019-03-20T09:56:10.364Z,30.29
2019-03-20T09:58:21.271Z,29.88
2019-03-20T10:00:32.093Z,32.22
2019-03-20T10:03:24.519Z,30.30
2019-03-20T10:05:35.337Z,29.91
2019-03-20T10:07:46.355Z,33.78
2019-03-20T10:09:57.187Z,32.13
2019-03-20T10:12:08.045Z,32.86
2019-03-20T10:14:18.846Z,31.46
2019-03-20T10:16:29.640Z,30.36
2019-03-20T10:18:40.453Z,31.30
2019-03-20T10:20:51.294Z,32.59
2019-03-20T10:23:02.201Z,31.37
2019-03-20T10:25:54.647Z,32.45
2019-03-20T10:28:05.460Z,31.19
2019-03-20T10:30:36.145Z,31.35
2019-03-20T10:32:47.073Z,31.77
2019-03-20T10:34:57.927Z,31.93
2019-03-20T10:37:08.854Z,30.55
2019-03-20T10:39:19.629Z,34.04
2019-03-20T10:41:30.455Z,32.59
2019-03-20T10:43:41.258Z,32.30
2019-03-20T10:45:52.137Z,32.13
2019-03-20T10:48:03.097Z,30.33
2019-03-20T10:50:33.785Z,31.15
2019-03-20T10:52:44.621Z,33.28
2019-03-20T10:54:55.620Z,31.04
2019-03-20T10:57:06.429Z,32.31
2019-03-20T10:59:17.261Z,31.92
2019-03-20T11:01:28.099Z,31.90
2019-03-20T11:03:38.929Z,32.98
2019-03-20T11:05:49.782Z,30.85
2019-03-20T11:08:00.593Z,33.31
2019-03-20T11:10:31.266Z,33.15
2019-03-20T11:12:42.110Z,32.95
2019-03-20T11:14:52.889Z,33.48
2019-03-20T11:17:11.275Z,32.58
2019-03-20T11:22:18.942Z,32.03
2019-03-20T11:24:27.134Z,32.61
2019-03-20T11:26:37.942Z,33.16
2019-03-20T11:28:48.788Z,32.78
2019-03-20T11:30:59.613Z,31.23
2019-03-20T11:33:10.449Z,31.88
2019-03-20T11:35:21.365Z,31.20
2019-03-20T11:37:32.203Z,33.12
2019-03-20T11:39:43.123Z,34.27
2019-03-20T11:41:53.964Z,32.91
2019-03-20T11:44:04.872Z,32.45
2019-03-20T11:46:15.685Z,32.67
2019-03-20T11:48:26.508Z,32.76
2019-03-20T11:51:18.949Z,33.26
2019-03-20T11:53:29.770Z,32.40
2019-03-20T11:55:40.568Z,34.46
2019-03-20T11:57:51.376Z,33.66
2019-03-20T12:00:43.858Z,33.05
2019-03-20T12:02:54.704Z,35.56
2019-03-20T12:05:47.185Z,33.62
2019-03-20T12:07:58.120Z,33.71
2019-03-20T12:10:50.572Z,33.83
2019-03-20T12:13:01.411Z,33.92
2019-03-20T12:15:53.813Z,34.44
2019-03-20T12:18:04.799Z,32.04
2019-03-20T12:20:57.288Z,33.29
2019-03-20T12:23:08.207Z,32.76
2019-03-20T12:25:39.104Z,32.29
2019-03-20T12:27:49.901Z,34.48
2019-03-20T12:30:00.782Z,32.93
2019-03-20T12:32:11.644Z,35.40
2019-03-20T12:34:22.513Z,34.25
2019-03-20T12:36:33.341Z,32.96
2019-03-20T12:38:44.172Z,34.70
2019-03-20T12:40:54.966Z,35.53
2019-03-20T12:43:05.888Z,35.84
2019-03-20T12:45:58.363Z,34.56
2019-03-20T12:48:50.876Z,32.96
2019-03-20T12:51:01.693Z,31.24
2019-03-20T12:53:33.438Z,31.76
2019-03-20T12:55:44.266Z,30.87
2019-03-20T12:57:55.087Z,29.81
2019-03-20T13:00:27.455Z,30.33
2019-03-20T13:02:38.891Z,31.35
2019-03-20T13:04:49.688Z,31.01
2019-03-20T13:07:00.532Z,30.43
2019-03-20T13:09:11.341Z,32.68
2019-03-20T13:11:22.216Z,32.28
2019-03-20T13:13:33.025Z,33.30
2019-03-20T13:15:43.834Z,30.89
2019-03-20T13:18:36.336Z,32.77
2019-03-20T13:20:47.186Z,31.04
2019-03-20T13:23:39.618Z,30.43
2019-03-20T13:25:50.437Z,32.25
2019-03-20T13:28:01.237Z,30.73
2019-03-20T13:30:53.718Z,30.18
2019-03-20T13:33:04.528Z,30.97
2019-03-20T13:35:15.381Z,30.65
2019-03-20T13:37:26.213Z,31.41
2019-03-20T13:39:37.012Z,30.96
2019-03-20T13:41:47.845Z,32.02
2019-03-20T13:43:58.647Z,32.25
2019-03-20T13:46:09.481Z,31.30
2019-03-20T13:48:20.285Z,31.47
2019-03-20T13:50:31.102Z,31.17
2019-03-20T13:52:42.044Z,32.41
2019-03-20T13:54:52.841Z,31.07
2019-03-20T13:57:03.882Z,31.35
2019-03-20T13:59:14.690Z,31.26
2019-03-20T14:01:25.500Z,32.18
2019-03-20T14:03:36.325Z,30.95
2019-03-20T14:05:47.158Z,30.75
2019-03-20T14:07:58.014Z,30.92
2019-03-20T14:10:50.912Z,31.12
2019-03-20T14:13:01.794Z,32.32
2019-03-20T14:15:54.241Z,31.83
2019-03-20T14:18:05.079Z,31.38
2019-03-20T14:20:57.524Z,32.02
2019-03-20T14:23:08.380Z,32.73
2019-03-20T14:26:00.831Z,32.25
2019-03-20T14:28:11.655Z,31.64
2019-03-20T14:30:42.329Z,32.50
2019-03-20T14:32:53.241Z,32.73
2019-03-20T14:35:45.746Z,32.15
2019-03-20T14:37:56.567Z,32.77
2019-03-20T14:40:49.010Z,32.59
2019-03-20T14:42:59.985Z,31.50
2019-03-20T14:45:52.513Z,31.86
2019-03-20T14:48:03.310Z,31.50
2019-03-20T14:50:55.768Z,31.58
2019-03-20T14:53:06.686Z,32.06
2019-03-20T14:55:17.496Z,31.87
2019-03-20T14:57:28.334Z,31.75
2019-03-20T14:59:39.145Z,31.52
2019-03-20T15:01:49.949Z,31.80
2019-03-20T15:04:00.877Z,32.11
2019-03-20T15:06:11.692Z,32.70
2019-03-20T15:08:22.610Z,32.08
2019-03-20T15:10:33.464Z,32.52
2019-03-20T15:12:44.467Z,33.06
2019-03-20T15:14:55.291Z,32.11
2019-03-20T15:17:06.111Z,34.42
2019-03-20T15:19:16.914Z,33.66
2019-03-20T15:24:06.917Z,33.31
2019-03-20T15:26:17.728Z,32.02
2019-03-20T15:28:28.539Z,32.18
2019-03-20T15:30:39.482Z,32.27
2019-03-20T15:32:50.298Z,32.11
2019-03-20T15:35:01.245Z,32.72
2019-03-20T15:37:12.061Z,32.27
2019-03-20T15:39:22.891Z,32.35
2019-03-20T15:41:33.856Z,33.15
2019-03-20T15:43:44.669Z,34.32
2019-03-20T15:45:55.498Z,34.24
2019-03-20T15:48:06.302Z,32.83
2019-03-20T15:50:37.013Z,33.55
2019-03-20T15:52:47.936Z,33.59
2019-03-20T15:54:58.725Z,34.01
2019-03-20T15:57:09.543Z,34.40
2019-03-20T15:59:20.472Z,33.37
2019-03-20T16:01:31.304Z,33.35
2019-03-20T16:04:23.776Z,33.24
2019-03-20T16:06:34.622Z,32.73
2019-03-20T16:08:45.418Z,32.96
2019-03-20T16:11:05.959Z,32.77
2019-03-20T16:13:08.953Z,32.62
2019-03-20T16:16:01.422Z,33.16
2019-03-20T16:18:12.311Z,33.30
2019-03-20T16:20:23.083Z,32.98
2019-03-20T16:22:33.920Z,33.29
2019-03-20T16:24:44.722Z,33.04
2019-03-20T16:26:55.554Z,33.37
2019-03-20T16:29:06.504Z,33.50
2019-03-20T16:31:17.325Z,34.51
2019-03-20T16:33:28.179Z,34.79
2019-03-20T16:35:39.006Z,34.29
2019-03-20T16:37:49.839Z,33.96
2019-03-20T16:40:00.657Z,34.21
2019-03-20T16:42:11.450Z,34.77
2019-03-20T16:44:22.295Z,34.83
2019-03-20T16:46:33.119Z,35.24
2019-03-20T16:49:25.655Z,35.54
2019-03-20T16:51:36.459Z,35.37
2019-03-20T16:53:47.269Z,35.88
2019-03-20T16:55:58.095Z,35.75
2019-03-20T16:58:09.009Z,35.77
2019-03-20T17:01:01.483Z,36.14
2019-03-20T17:03:12.293Z,36.64
2019-03-20T17:06:04.982Z,36.98
2019-03-20T17:08:15.795Z,37.28
2019-03-20T17:10:46.476Z,37.48
2019-03-20T17:13:38.925Z,37.48
2019-03-20T17:15:49.761Z,37.51
2019-03-20T17:18:00.588Z,37.71
2019-03-20T17:20:53.094Z,38.31
2019-03-20T17:23:45.552Z,41.04
2019-03-20T17:25:56.389Z,38.21
2019-03-20T17:28:07.431Z,38.31
2019-03-20T17:30:58.012Z,38.68
2019-03-20T17:33:08.824Z,38.92
2019-03-20T17:35:19.767Z,38.91
2019-03-20T17:37:50.493Z,39.80
2019-03-20T17:40:01.303Z,39.80
2019-03-20T17:44:28.951Z,39.41
2019-03-20T17:46:39.855Z,39.66
2019-03-20T17:48:50.657Z,39.74
2019-03-20T17:51:01.608Z,39.92
2019-03-20T17:53:12.752Z,39.89
2019-03-20T17:55:23.939Z,39.84
2019-03-20T17:57:34.770Z,39.75
2019-03-20T17:59:45.629Z,40.11
2019-03-20T18:01:56.467Z,40.31
2019-03-20T18:04:07.281Z,40.84
2019-03-20T18:06:18.082Z,41.74
2019-03-20T18:08:28.902Z,43.11
2019-03-20T18:10:39.740Z,43.67
2019-03-20T18:12:50.623Z,43.63
2019-03-20T18:15:43.086Z,44.13
2019-03-20T18:17:53.889Z,44.34
2019-03-20T18:20:24.564Z,44.02
2019-03-20T18:22:35.378Z,44.54
2019-03-20T18:24:46.168Z,44.66
2019-03-20T18:26:57.027Z,44.77
2019-03-20T18:29:07.828Z,45.03
2019-03-20T18:31:18.646Z,45.39
2019-03-20T18:33:29.505Z,45.58
2019-03-20T18:35:40.355Z,46.33
2019-03-20T18:37:51.322Z,46.91
2019-03-20T18:40:43.783Z,48.01
2019-03-20T18:45:55.294Z,49.28
2019-03-20T18:48:06.125Z,49.57
2019-03-20T18:50:58.564Z,49.81
2019-03-20T18:53:09.445Z,49.92
2019-03-20T18:55:20.352Z,50.63
2019-03-20T18:57:31.180Z,51.75
2019-03-20T18:59:42.024Z,51.93
2019-03-20T19:01:52.911Z,52.43
2019-03-20T19:04:03.865Z,52.75
2019-03-20T19:06:34.578Z,53.15
2019-03-20T19:08:45.456Z,53.15
2019-03-20T19:10:56.325Z,53.90
2019-03-20T19:13:07.231Z,54.16
2019-03-20T19:15:18.140Z,54.77
2019-03-20T19:17:29.001Z,55.46
2019-03-20T19:19:39.838Z,55.12
2019-03-20T19:21:50.681Z,55.42
2019-03-20T19:24:01.527Z,55.23
2019-03-20T19:26:12.345Z,55.72
2019-03-20T19:28:23.164Z,56.01
2019-03-20T19:30:34.105Z,55.99
2019-03-20T19:32:45.052Z,56.20
2019-03-20T19:34:55.960Z,56.72
2019-03-20T19:37:06.774Z,56.87
2019-03-20T19:39:17.611Z,56.92
2019-03-20T19:41:28.429Z,56.71
2019-03-20T19:43:39.305Z,57.13
2019-03-20T19:45:50.224Z,57.38
2019-03-20T19:48:01.050Z,57.63
2019-03-20T19:50:31.756Z,57.90
2019-03-20T19:52:42.687Z,58.19
2019-03-20T19:54:53.553Z,58.13
2019-03-20T19:57:04.355Z,58.44
2019-03-20T19:59:35.718Z,58.30
2019-03-20T20:01:58.329Z,58.52
2019-03-20T20:03:59.300Z,59.02
2019-03-20T20:06:11.342Z,59.07
2019-03-20T20:08:22.875Z,59.40
2019-03-20T20:10:36.516Z,59.15
2019-03-20T20:12:47.443Z,59.03
2019-03-20T20:14:58.244Z,59.12
2019-03-20T20:17:09.072Z,59.08
2019-03-20T20:19:19.918Z,58.97
2019-03-20T20:21:30.796Z,59.09
2019-03-20T20:23:41.605Z,59.57
2019-03-20T20:25:52.601Z,59.53
2019-03-20T20:28:03.592Z,60.04
2019-03-20T20:30:56.059Z,60.45
2019-03-20T20:33:06.853Z,60.59
2019-03-20T20:35:17.694Z,60.91
2019-03-20T20:37:28.581Z,60.73
2019-03-20T20:39:39.388Z,60.78
2019-03-20T20:41:50.216Z,60.64
2019-03-20T20:44:01.024Z,60.59
2019-03-20T20:46:11.868Z,60.21
2019-03-20T20:48:22.672Z,60.65
2019-03-20T20:50:33.474Z,60.67
2019-03-20T20:53:25.934Z,60.55
2019-03-20T20:55:36.736Z,60.46
2019-03-20T20:58:07.447Z,60.68
2019-03-20T21:00:38.131Z,60.96
2019-03-20T21:05:07.745Z,61.22
2019-03-20T21:07:18.575Z,61.10
2019-03-20T21:09:29.383Z,60.82
2019-03-20T21:11:40.233Z,60.71
2019-03-20T21:13:51.058Z,60.87
2019-03-20T21:16:02.115Z,60.69
2019-03-20T21:18:54.603Z,61.00
2019-03-20T21:21:05.521Z,61.27
2019-03-20T21:23:57.972Z,60.85
2019-03-20T21:26:48.508Z,60.51
2019-03-20T21:29:39.066Z,60.41
2019-03-20T21:32:31.566Z,60.19
2019-03-20T21:35:24.047Z,59.60
2019-03-20T21:38:14.593Z,59.84
2019-03-20T21:40:25.414Z,60.18
2019-03-20T21:43:15.960Z,60.58
2019-03-20T21:46:06.523Z,60.98
2019-03-20T21:51:29.425Z,60.89
2019-03-20T21:54:19.992Z,60.94
2019-03-20T21:57:10.545Z,61.28
2019-03-20T22:00:03.014Z,61.02
2019-03-20T22:02:53.573Z,61.17
2019-03-20T22:05:44.198Z,61.36
2019-03-20T22:07:55.011Z,61.88
2019-03-20T22:10:47.481Z,62.53
2019-03-20T22:13:39.928Z,63.03
2019-03-20T22:16:30.501Z,63.47
2019-03-20T22:19:22.941Z,63.47
2019-03-20T22:22:15.411Z,63.55
2019-03-20T22:25:06.045Z,63.60
2019-03-20T22:30:15.744Z,64.46
2019-03-20T22:33:08.188Z,64.71
2019-03-20T22:36:00.701Z,65.02
2019-03-20T22:38:53.316Z,66.21
2019-03-20T22:41:43.890Z,66.31
2019-03-20T22:44:36.332Z,66.25
2019-03-20T22:47:28.785Z,66.09
2019-03-20T22:50:21.215Z,66.26
2019-03-20T22:53:11.783Z,66.52
2019-03-20T22:56:04.319Z,67.25
2019-03-20T22:58:56.719Z,67.05
2019-03-20T23:01:49.178Z,67.19
2019-03-20T23:04:41.619Z,67.13
2019-03-20T23:06:52.445Z,67.19
2019-03-20T23:09:44.889Z,67.03
2019-03-20T23:12:37.344Z,66.84
2019-03-20T23:14:48.146Z,67.62
2019-03-20T23:16:58.942Z,68.21
2019-03-20T23:19:09.786Z,68.29
2019-03-20T23:21:20.596Z,68.71
2019-03-20T23:24:13.059Z,68.67
2019-03-20T23:26:23.877Z,68.25
2019-03-20T23:28:34.723Z,68.61
2019-03-20T23:30:45.531Z,68.70
2019-03-20T23:32:56.373Z,68.69
2019-03-20T23:35:07.297Z,68.40
2019-03-20T23:37:18.096Z,68.17
2019-03-20T23:39:28.913Z,68.29
2019-03-20T23:41:39.719Z,67.98
2019-03-20T23:43:53.323Z,68.13
2019-03-20T23:46:25.017Z,68.17
2019-03-20T23:49:17.493Z,68.07
2019-03-20T23:52:09.933Z,68.09
2019-03-20T23:55:02.396Z,67.67
2019-03-20T23:57:54.836Z,67.30
